»·PEaware :: N2703F KHAF-KHWD

N2703F :: KHAF-KHWD

FLIGHT INFORMATION

Flight Status: Arrived
Operator: Privately registered:
United States
More flights under this callsign
Pilot: Angus M. (9315)
Aircraft: PIPER PA-22 TRI PACER/CARIBBEAN
(PA22)
More flights by this aircraft type
Origin: KHAF Half Moon Bay
United States
Destination: KHWD Hayward Executive
United States
More flights between these airports :: More routes between these airports
Route:
File this flight plan on PilotEdge
Remarks:
Altitude:
(Current/Filed)
4,500ft
Speed:
(Current/Filed)
110kts
Departed: 03-Aug-16 02:48 PM
Arrived: 03-Aug-16 03:21 PM
Distance/Time
Traveled:
20nm/0:33
Distance/Time
To Go:
Arrived

Flight Plot

Page will automatically refresh every two minutes.


Map Options




Map Legend


Flown Route
Filed Route
Departure Airport
Arrival Airport
Navaid (VOR, NDB)
Fix

Horizontal Profiles

Position Reports

Time Latitude Longitude Heading Altitude Ground
Speed
03-Aug-16 14:24 37.515119 -122.497331 299 67ft 0kts
03-Aug-16 14:25 37.515119 -122.497331 299 67ft 0kts
03-Aug-16 14:26 37.515119 -122.497331 299 67ft 0kts
03-Aug-16 14:27 37.515119 -122.497331 299 67ft 0kts
03-Aug-16 14:28 37.515119 -122.497331 299 67ft 0kts
03-Aug-16 14:29 37.515121 -122.497334 298 67ft 0kts
03-Aug-16 14:30 37.515121 -122.497334 298 67ft 0kts
03-Aug-16 14:31 37.515121 -122.497334 298 67ft 0kts
03-Aug-16 14:32 37.515121 -122.497334 298 67ft 0kts
03-Aug-16 14:33 37.515126 -122.497346 294 67ft 2kts
03-Aug-16 14:34 37.515164 -122.497246 254 67ft 4kts
03-Aug-16 14:35 37.515213 -122.496723 104 67ft 9kts
03-Aug-16 14:36 37.514226 -122.496060 126 67ft 9kts
03-Aug-16 14:37 37.513530 -122.494726 182 67ft 4kts
03-Aug-16 14:38 37.511542 -122.495562 141 67ft 7kts
03-Aug-16 14:39 37.510167 -122.493917 134 67ft 7kts
03-Aug-16 14:40 37.508865 -122.494910 228 67ft 0kts
03-Aug-16 14:41 37.510773 -122.498188 312 67ft 26kts
03-Aug-16 14:42 37.524332 -122.510904 335 509ft 82kts
03-Aug-16 14:43 37.545955 -122.508222 22 1464ft 85kts
03-Aug-16 14:44 37.560263 -122.489159 89 2310ft 83kts
03-Aug-16 14:45 37.556393 -122.466661 114 3044ft 81kts
03-Aug-16 14:46 37.551389 -122.446341 105 3623ft 84kts
03-Aug-16 14:47 37.551609 -122.420513 86 4285ft 86kts
03-Aug-16 14:48 37.552584 -122.391501 91 4602ft 108kts
03-Aug-16 14:49 37.551449 -122.358269 93 4527ft 121kts
03-Aug-16 14:50 37.551701 -122.325514 93 4587ft 118kts
03-Aug-16 14:51 37.550035 -122.297776 94 4556ft 120kts
03-Aug-16 14:52 37.547550 -122.257479 95 4551ft 120kts
03-Aug-16 14:53 37.547040 -122.221465 91 4548ft 120kts
03-Aug-16 14:54 37.549311 -122.192047 64 4513ft 122kts
03-Aug-16 14:55 37.569795 -122.170720 22 4510ft 117kts
03-Aug-16 14:56 37.589828 -122.152110 39 4507ft 118kts
03-Aug-16 14:57 37.610433 -122.135489 23 4517ft 116kts
03-Aug-16 14:58 37.629562 -122.122509 26 4509ft 117kts
03-Aug-16 14:59 37.646924 -122.114125 10 3958ft 117kts
03-Aug-16 15:00 37.666381 -122.108591 9 3223ft 116kts
03-Aug-16 15:01 37.682371 -122.109413 332 2548ft 116kts
03-Aug-16 15:02 37.694528 -122.129987 271 1794ft 105kts
03-Aug-16 15:03 37.683439 -122.155122 222 1226ft 83kts
03-Aug-16 15:04 37.665222 -122.164495 181 1244ft 78kts
03-Aug-16 15:05 37.649064 -122.150075 131 1239ft 90kts
03-Aug-16 15:06 37.634443 -122.129701 128 1244ft 85kts
03-Aug-16 15:07 37.637020 -122.105955 50 1240ft 95kts
03-Aug-16 15:08 37.654289 -122.107418 274 564ft 93kts
03-Aug-16 15:09 37.664116 -122.134389 294 230ft 85kts
03-Aug-16 15:10 37.667629 -122.158746 221 778ft 70kts
03-Aug-16 15:11 37.648856 -122.153865 139 1150ft 87kts
03-Aug-16 15:12 37.634642 -122.132272 121 1225ft 91kts
03-Aug-16 15:13 37.638006 -122.105220 47 1091ft 95kts
03-Aug-16 15:14 37.654508 -122.111607 270 276ft 93kts
03-Aug-16 15:15 37.659473 -122.125563 212 55ft 7kts
03-Aug-16 15:16 37.660422 -122.128961 299 55ft 19kts
03-Aug-16 15:17 37.661379 -122.131376 221 55ft 0kts
03-Aug-16 15:18 37.661379 -122.131376 221 55ft 0kts
03-Aug-16 15:19 37.659773 -122.116618 61 57ft 0kts

Navigation Log

Ident Type
Flight plan parsing failed, navigation log unavailable